createdAt,value
2019-04-04T00:00:17.154Z,0
2019-04-04T00:01:18.642Z,0
2019-04-04T00:02:20.185Z,0
2019-04-04T00:03:21.758Z,0
2019-04-04T00:04:23.082Z,0
2019-04-04T00:05:25.794Z,0
2019-04-04T00:06:27.097Z,0
2019-04-04T00:07:28.970Z,0
2019-04-04T00:08:30.959Z,0
2019-04-04T00:09:31.196Z,0
2019-04-04T00:10:32.888Z,0
2019-04-04T00:11:33.247Z,0
2019-04-04T00:12:34.776Z,0
2019-04-04T00:13:36.257Z,0
2019-04-04T00:14:37.805Z,0
2019-04-04T00:15:39.274Z,0
2019-04-04T00:16:40.759Z,0
2019-04-04T00:17:42.323Z,0
2019-04-04T00:18:43.819Z,0
2019-04-04T00:19:45.356Z,0
2019-04-04T00:20:46.873Z,0
2019-04-04T00:21:48.368Z,0
2019-04-04T00:22:49.852Z,0
2019-04-04T00:23:51.266Z,0
2019-04-04T00:24:52.740Z,0
2019-04-04T00:25:54.271Z,0
2019-04-04T00:26:55.779Z,0
2019-04-04T00:27:57.288Z,0
2019-04-04T00:29:01.198Z,0
2019-04-04T00:30:00.251Z,0
2019-04-04T00:31:01.752Z,0
2019-04-04T00:32:03.247Z,0
2019-04-04T00:33:04.707Z,0
2019-04-04T00:34:06.207Z,0
2019-04-04T00:35:07.883Z,0
2019-04-04T00:36:09.471Z,0
2019-04-04T00:37:10.929Z,0
2019-04-04T00:38:12.495Z,0
2019-04-04T00:39:13.920Z,0
2019-04-04T00:40:15.472Z,0
2019-04-04T00:41:16.981Z,0
2019-04-04T00:42:18.460Z,0
2019-04-04T00:43:21.530Z,0
2019-04-04T00:44:22.870Z,0
2019-04-04T00:45:22.928Z,0
2019-04-04T00:46:24.380Z,0
2019-04-04T00:47:25.801Z,0
2019-04-04T00:48:27.363Z,0
2019-04-04T00:49:28.835Z,0
2019-04-04T00:50:30.464Z,0
2019-04-04T00:51:31.875Z,0
2019-04-04T00:52:33.409Z,0
2019-04-04T00:53:34.953Z,0
2019-04-04T00:54:36.521Z,0
2019-04-04T00:55:38.011Z,0
2019-04-04T00:56:39.595Z,0
2019-04-04T00:57:40.996Z,0
2019-04-04T00:58:42.488Z,0
2019-04-04T00:59:44.086Z,0
2019-04-04T01:00:45.565Z,0
2019-04-04T01:01:47.142Z,0
2019-04-04T01:02:48.665Z,0
2019-04-04T01:03:50.132Z,0
2019-04-04T01:04:51.540Z,0
2019-04-04T01:05:53.041Z,0
2019-04-04T01:06:54.687Z,0
2019-04-04T01:07:56.132Z,0
2019-04-04T01:08:57.567Z,0
2019-04-04T01:09:59.195Z,0
2019-04-04T01:11:00.548Z,0
2019-04-04T01:12:02.031Z,0
2019-04-04T01:13:03.502Z,0
2019-04-04T01:14:04.997Z,0
2019-04-04T01:15:06.505Z,0
2019-04-04T01:16:07.998Z,0
2019-04-04T01:17:09.480Z,0
2019-04-04T01:18:11.019Z,0
2019-04-04T01:19:12.687Z,0
2019-04-04T01:20:14.218Z,0
2019-04-04T01:21:15.624Z,0
2019-04-04T01:22:17.158Z,0
2019-04-04T01:23:18.666Z,0
2019-04-04T01:24:20.216Z,0
2019-04-04T01:25:21.646Z,0
2019-04-04T01:26:23.206Z,0
2019-04-04T01:27:24.628Z,0
2019-04-04T01:28:26.244Z,0
2019-04-04T01:29:27.667Z,0
2019-04-04T01:30:29.177Z,0
2019-04-04T01:31:30.712Z,0
2019-04-04T01:32:32.278Z,0
2019-04-04T01:33:33.859Z,0
2019-04-04T01:34:35.384Z,0
2019-04-04T01:35:36.914Z,0
2019-04-04T01:36:38.445Z,0
2019-04-04T01:37:39.977Z,0
2019-04-04T01:38:41.475Z,0
2019-04-04T01:39:43.064Z,0
2019-04-04T01:40:44.607Z,0
2019-04-04T01:41:46.212Z,0
2019-04-04T01:42:47.803Z,0
2019-04-04T01:43:49.284Z,0
2019-04-04T01:44:50.814Z,0
2019-04-04T01:45:52.271Z,0
2019-04-04T01:46:53.831Z,0
2019-04-04T01:47:55.347Z,0
2019-04-04T01:48:56.777Z,0
2019-04-04T01:49:58.231Z,0
2019-04-04T01:50:59.713Z,0
2019-04-04T01:52:01.158Z,0
2019-04-04T01:53:02.633Z,0
2019-04-04T01:54:04.120Z,0
2019-04-04T01:55:05.581Z,0
2019-04-04T01:56:07.155Z,0
2019-04-04T01:57:08.754Z,0
2019-04-04T01:58:10.637Z,0
2019-04-04T01:59:12.260Z,0
2019-04-04T02:00:14.761Z,0
2019-04-04T02:01:16.329Z,0
2019-04-04T02:02:17.674Z,0
2019-04-04T02:03:17.359Z,0
2019-04-04T02:04:19.054Z,0
2019-04-04T02:05:20.476Z,0
2019-04-04T02:06:22.008Z,0
2019-04-04T02:07:23.468Z,0
2019-04-04T02:08:24.983Z,0
2019-04-04T02:09:26.451Z,0
2019-04-04T02:10:27.982Z,0
2019-04-04T02:11:29.492Z,0
2019-04-04T02:12:31.032Z,0
2019-04-04T02:13:32.559Z,0
2019-04-04T02:14:34.095Z,0
2019-04-04T02:15:35.616Z,0
2019-04-04T02:16:36.997Z,0
2019-04-04T02:17:38.521Z,0
2019-04-04T02:18:40.021Z,0
2019-04-04T02:19:41.507Z,0
2019-04-04T02:20:43.010Z,0
2019-04-04T02:21:44.642Z,0
2019-04-04T02:22:46.092Z,0
2019-04-04T02:23:47.631Z,0
2019-04-04T02:24:49.214Z,0
2019-04-04T02:25:50.743Z,0
2019-04-04T02:26:52.239Z,0
2019-04-04T02:27:53.734Z,0
2019-04-04T02:28:55.211Z,0
2019-04-04T02:29:56.728Z,0
2019-04-04T02:30:58.304Z,0
2019-04-04T02:31:59.834Z,0
2019-04-04T02:33:01.365Z,0
2019-04-04T02:34:05.315Z,0
2019-04-04T02:35:04.354Z,0
2019-04-04T02:36:05.878Z,0
2019-04-04T02:37:07.384Z,0
2019-04-04T02:38:08.907Z,0
2019-04-04T02:39:10.417Z,0
2019-04-04T02:40:11.907Z,0
2019-04-04T02:41:15.417Z,0
2019-04-04T02:42:14.953Z,0
2019-04-04T02:43:16.384Z,0
2019-04-04T02:44:17.803Z,0
2019-04-04T02:45:19.330Z,0
2019-04-04T02:46:20.885Z,0
2019-04-04T02:47:22.553Z,0
2019-04-04T02:48:24.707Z,0
2019-04-04T02:49:27.943Z,0
2019-04-04T02:50:27.058Z,0
2019-04-04T02:51:29.066Z,0
2019-04-04T02:52:30.517Z,0
2019-04-04T02:53:32.074Z,0
2019-04-04T02:54:33.534Z,0
2019-04-04T02:55:35.114Z,0
2019-04-04T02:56:36.628Z,0
2019-04-04T02:57:41.192Z,0
2019-04-04T02:58:39.749Z,0
2019-04-04T02:59:41.275Z,0
2019-04-04T03:00:42.746Z,0
2019-04-04T03:01:44.289Z,0
2019-04-04T03:02:45.875Z,0
2019-04-04T03:03:47.298Z,0
2019-04-04T03:04:48.803Z,0
2019-04-04T03:05:51.963Z,0
2019-04-04T03:06:51.990Z,0
2019-04-04T03:07:53.486Z,0
2019-04-04T03:08:54.967Z,0
2019-04-04T03:09:56.496Z,0
2019-04-04T03:10:57.999Z,0
2019-04-04T03:11:59.536Z,0
2019-04-04T03:13:01.049Z,0
2019-04-04T03:14:03.697Z,0
2019-04-04T03:15:06.353Z,0
2019-04-04T03:16:05.454Z,0
2019-04-04T03:17:06.957Z,0
2019-04-04T03:18:08.424Z,0
2019-04-04T03:19:10.914Z,0
2019-04-04T03:20:16.054Z,0
2019-04-04T03:21:13.094Z,0
2019-04-04T03:22:14.410Z,0
2019-04-04T03:23:15.927Z,0
2019-04-04T03:24:17.406Z,0
2019-04-04T03:25:18.868Z,0
2019-04-04T03:26:20.679Z,0
2019-04-04T03:27:25.801Z,0
2019-04-04T03:28:23.590Z,0
2019-04-04T03:29:25.160Z,0
2019-04-04T03:30:26.764Z,0
2019-04-04T03:31:35.901Z,0
2019-04-04T03:32:29.769Z,0
2019-04-04T03:33:32.449Z,0
2019-04-04T03:34:32.656Z,0
2019-04-04T03:35:34.291Z,0
2019-04-04T03:36:35.821Z,0
2019-04-04T03:37:40.533Z,0
2019-04-04T03:38:38.786Z,0
2019-04-04T03:39:40.352Z,0
2019-04-04T03:40:42.115Z,0
2019-04-04T03:41:43.393Z,0
2019-04-04T03:42:45.028Z,0
2019-04-04T03:43:48.842Z,0
2019-04-04T03:44:52.892Z,0
2019-04-04T03:45:49.393Z,0
2019-04-04T03:46:50.912Z,0
2019-04-04T03:47:52.525Z,0
2019-04-04T03:48:54.010Z,0
2019-04-04T03:49:57.728Z,0
2019-04-04T03:50:57.637Z,0
2019-04-04T03:51:58.731Z,0
2019-04-04T03:53:00.231Z,0
2019-04-04T03:54:01.778Z,0
2019-04-04T03:55:03.242Z,0
2019-04-04T03:56:04.683Z,0
2019-04-04T03:57:06.263Z,0
2019-04-04T03:58:07.927Z,0
2019-04-04T03:59:09.483Z,0
2019-04-04T04:00:11.194Z,0
2019-04-04T04:01:13.320Z,0
2019-04-04T04:02:17.873Z,0
2019-04-04T04:03:16.075Z,0
2019-04-04T04:04:17.575Z,0
2019-04-04T04:05:19.172Z,0
2019-04-04T04:06:20.553Z,0
2019-04-04T04:07:22.077Z,0
2019-04-04T04:08:23.573Z,0
2019-04-04T04:09:26.463Z,0
2019-04-04T04:10:26.529Z,0
2019-04-04T04:11:28.045Z,0
2019-04-04T04:12:29.518Z,0
2019-04-04T04:13:31.218Z,0
2019-04-04T04:14:32.866Z,0
2019-04-04T04:15:34.379Z,0
2019-04-04T04:16:36.211Z,0
2019-04-04T04:17:37.435Z,0
2019-04-04T04:18:38.777Z,0
2019-04-04T04:19:40.328Z,0
2019-04-04T04:20:41.772Z,0
2019-04-04T04:21:43.875Z,0
2019-04-04T04:22:44.796Z,0
2019-04-04T04:23:49.564Z,0
2019-04-04T04:24:48.569Z,0
2019-04-04T04:25:50.129Z,0
2019-04-04T04:26:51.720Z,0
2019-04-04T04:27:53.243Z,0
2019-04-04T04:28:54.886Z,0
2019-04-04T04:29:56.562Z,0
2019-04-04T04:30:58.132Z,0
2019-04-04T04:31:59.881Z,0
2019-04-04T04:33:01.417Z,0
2019-04-04T04:34:02.936Z,0
2019-04-04T04:35:07.547Z,0
2019-04-04T04:36:09.311Z,0
2019-04-04T04:37:07.329Z,0
2019-04-04T04:38:08.855Z,0
2019-04-04T04:39:10.353Z,0
2019-04-04T04:40:14.917Z,0
2019-04-04T04:41:13.392Z,0
2019-04-04T04:42:14.915Z,0
2019-04-04T04:43:16.368Z,0
2019-04-04T04:44:17.871Z,4
2019-04-04T04:45:19.449Z,4
2019-04-04T04:46:21.049Z,0
2019-04-04T04:47:23.921Z,4
2019-04-04T04:48:25.926Z,4
2019-04-04T04:49:25.824Z,4
2019-04-04T04:50:27.338Z,4
2019-04-04T04:51:28.896Z,8
2019-04-04T04:52:30.423Z,4
2019-04-04T04:53:32.124Z,8
2019-04-04T04:54:33.658Z,8
2019-04-04T04:55:35.238Z,8
2019-04-04T04:56:36.811Z,12
2019-04-04T04:57:38.414Z,12
2019-04-04T04:58:41.727Z,16
2019-04-04T04:59:44.329Z,16
2019-04-04T05:00:42.990Z,16
2019-04-04T05:01:44.555Z,20
2019-04-04T05:02:46.099Z,20
2019-04-04T05:03:50.454Z,24
2019-04-04T05:04:49.169Z,24
2019-04-04T05:05:50.641Z,28
2019-04-04T05:06:52.119Z,28
2019-04-04T05:07:54.864Z,32
2019-04-04T05:08:55.194Z,32
2019-04-04T05:09:56.719Z,36
2019-04-04T05:10:58.301Z,36
2019-04-04T05:11:59.877Z,40
2019-04-04T05:13:01.373Z,40
2019-04-04T05:14:02.847Z,48
2019-04-04T05:15:04.375Z,44
2019-04-04T05:16:08.772Z,48
2019-04-04T05:17:09.816Z,52
2019-04-04T05:18:11.695Z,56
2019-04-04T05:19:10.404Z,56
2019-04-04T05:20:11.973Z,60
2019-04-04T05:21:24.478Z,60
2019-04-04T05:22:14.968Z,64
2019-04-04T05:23:16.446Z,68
2019-04-04T05:24:18.658Z,76
2019-04-04T05:25:19.425Z,80
2019-04-04T05:26:20.898Z,92
2019-04-04T05:27:22.437Z,100
2019-04-04T05:28:23.972Z,108
2019-04-04T05:29:25.393Z,116
2019-04-04T05:30:26.917Z,124
2019-04-04T05:31:28.391Z,132
2019-04-04T05:32:29.965Z,136
2019-04-04T05:33:31.770Z,144
2019-04-04T05:34:33.126Z,148
2019-04-04T05:35:37.457Z,152
2019-04-04T05:36:36.942Z,156
2019-04-04T05:37:38.380Z,168
2019-04-04T05:38:42.622Z,192
2019-04-04T05:39:40.753Z,220
2019-04-04T05:40:42.273Z,252
2019-04-04T05:41:43.836Z,276
2019-04-04T05:42:45.228Z,288
2019-04-04T05:43:46.771Z,288
2019-04-04T05:44:48.342Z,280
2019-04-04T05:45:49.976Z,268
2019-04-04T05:46:52.097Z,272
2019-04-04T05:47:55.066Z,280
2019-04-04T05:48:54.449Z,300
2019-04-04T05:49:56.001Z,332
2019-04-04T05:50:57.546Z,360
2019-04-04T05:51:58.979Z,376
2019-04-04T05:53:02.036Z,376
2019-04-04T05:54:02.087Z,376
2019-04-04T05:55:04.112Z,404
2019-04-04T05:56:06.447Z,456
2019-04-04T05:57:07.156Z,516
2019-04-04T05:58:08.600Z,564
2019-04-04T05:59:10.115Z,604
2019-04-04T06:00:11.675Z,640
2019-04-04T06:01:13.278Z,680
2019-04-04T06:02:14.751Z,720
2019-04-04T06:03:16.232Z,768
2019-04-04T06:04:19.635Z,816
2019-04-04T06:05:19.235Z,836
2019-04-04T06:06:20.743Z,804
2019-04-04T06:07:22.249Z,752
2019-04-04T06:08:23.769Z,720
2019-04-04T06:09:25.265Z,716
2019-04-04T06:10:26.814Z,724
2019-04-04T06:11:28.343Z,732
2019-04-04T06:12:29.960Z,728
2019-04-04T06:13:31.500Z,720
2019-04-04T06:14:33.006Z,708
2019-04-04T06:15:34.563Z,704
2019-04-04T06:16:36.068Z,712
2019-04-04T06:17:39.144Z,720
2019-04-04T06:18:38.977Z,736
2019-04-04T06:19:40.620Z,748
2019-04-04T06:20:42.378Z,764
2019-04-04T06:21:43.905Z,768
2019-04-04T06:22:45.508Z,772
2019-04-04T06:23:46.983Z,772
2019-04-04T06:24:48.472Z,768
2019-04-04T06:25:50.029Z,768
2019-04-04T06:26:51.497Z,760
2019-04-04T06:27:53.118Z,760
2019-04-04T06:28:54.649Z,760
2019-04-04T06:29:56.146Z,772
2019-04-04T06:31:00.574Z,784
2019-04-04T06:32:00.309Z,780
2019-04-04T06:33:04.018Z,768
2019-04-04T06:34:02.159Z,756
2019-04-04T06:35:03.760Z,764
2019-04-04T06:36:05.327Z,800
2019-04-04T06:37:06.875Z,860
2019-04-04T06:38:08.394Z,908
2019-04-04T06:39:09.882Z,940
2019-04-04T06:40:11.340Z,968
2019-04-04T06:41:12.784Z,984
2019-04-04T06:42:14.401Z,1024
2019-04-04T06:43:15.959Z,1104
2019-04-04T06:44:17.452Z,1232
2019-04-04T06:45:18.966Z,1340
2019-04-04T06:46:22.748Z,1388
2019-04-04T06:47:23.103Z,1408
2019-04-04T06:48:23.379Z,1392
2019-04-04T06:49:24.864Z,1348
2019-04-04T06:50:26.332Z,1288
2019-04-04T06:51:27.792Z,1224
2019-04-04T06:52:29.343Z,1168
2019-04-04T06:53:30.789Z,1124
2019-04-04T06:54:32.323Z,1088
2019-04-04T06:55:38.338Z,1060
2019-04-04T06:56:35.131Z,1064
2019-04-04T06:57:37.467Z,1108
2019-04-04T06:58:40.062Z,1188
2019-04-04T06:59:43.000Z,1304
2019-04-04T07:00:42.228Z,1460
2019-04-04T07:01:42.845Z,1648
2019-04-04T07:02:47.088Z,1824
2019-04-04T07:03:46.005Z,1872
2019-04-04T07:04:47.529Z,1800
2019-04-04T07:05:48.978Z,1716
2019-04-04T07:06:50.477Z,1648
2019-04-04T07:07:51.982Z,1600
2019-04-04T07:08:53.424Z,1556
2019-04-04T07:09:54.887Z,1524
2019-04-04T07:10:58.214Z,1536
2019-04-04T07:11:57.795Z,1584
2019-04-04T07:13:09.675Z,1604
2019-04-04T07:14:00.778Z,1556
2019-04-04T07:15:02.285Z,1468
2019-04-04T07:16:06.935Z,1408
2019-04-04T07:17:08.290Z,1404
2019-04-04T07:18:06.845Z,1428
2019-04-04T07:19:08.424Z,1444
2019-04-04T07:20:09.915Z,1424
2019-04-04T07:21:11.369Z,1412
2019-04-04T07:22:12.917Z,1412
2019-04-04T07:23:14.535Z,1432
2019-04-04T07:24:15.967Z,1492
2019-04-04T07:25:17.458Z,1624
2019-04-04T07:26:18.928Z,1788
2019-04-04T07:27:20.397Z,1904
2019-04-04T07:28:21.919Z,1904
2019-04-04T07:29:25.135Z,1828
2019-04-04T07:30:26.044Z,1736
2019-04-04T07:31:26.388Z,1676
2019-04-04T07:32:27.826Z,1632
2019-04-04T07:33:29.295Z,1588
2019-04-04T07:34:30.795Z,1536
2019-04-04T07:35:32.291Z,1496
2019-04-04T07:36:33.756Z,1480
2019-04-04T07:37:35.288Z,1480
2019-04-04T07:38:36.769Z,1512
2019-04-04T07:39:38.280Z,1580
2019-04-04T07:40:39.753Z,1668
2019-04-04T07:41:44.563Z,1764
2019-04-04T07:42:42.711Z,1864
2019-04-04T07:43:44.218Z,1992
2019-04-04T07:44:45.703Z,2208
2019-04-04T07:45:47.192Z,2568
2019-04-04T07:46:48.686Z,2956
2019-04-04T07:47:50.147Z,3036
2019-04-04T07:48:52.297Z,2808
2019-04-04T07:49:54.982Z,2568
2019-04-04T07:50:58.185Z,2432
2019-04-04T07:51:56.153Z,2344
2019-04-04T07:52:57.736Z,2260
2019-04-04T07:53:59.199Z,2228
2019-04-04T07:55:00.699Z,2256
2019-04-04T07:56:02.186Z,2288
2019-04-04T07:57:03.683Z,2340
2019-04-04T07:58:06.097Z,2396
2019-04-04T07:59:07.560Z,2424
2019-04-04T08:00:09.026Z,2476
2019-04-04T08:01:10.539Z,2536
2019-04-04T08:02:12.041Z,2552
2019-04-04T08:03:13.478Z,2532
2019-04-04T08:04:14.983Z,2504
2019-04-04T08:05:16.488Z,2500
2019-04-04T08:06:17.993Z,2516
2019-04-04T08:07:19.565Z,2572
2019-04-04T08:08:20.990Z,2648
2019-04-04T08:09:22.477Z,2712
2019-04-04T08:10:23.966Z,2764
2019-04-04T08:11:25.437Z,2800
2019-04-04T08:12:26.917Z,2828
2019-04-04T08:13:28.433Z,2876
2019-04-04T08:14:29.930Z,2884
2019-04-04T08:15:31.402Z,2896
2019-04-04T08:16:32.948Z,2964
2019-04-04T08:17:34.378Z,3028
2019-04-04T08:18:35.871Z,3084
2019-04-04T08:19:37.304Z,3136
2019-04-04T08:20:38.839Z,3120
2019-04-04T08:21:40.329Z,3056
2019-04-04T08:22:41.797Z,3036
2019-04-04T08:23:43.511Z,3100
2019-04-04T08:24:45.018Z,3224
2019-04-04T08:25:46.471Z,3280
2019-04-04T08:26:47.960Z,3300
2019-04-04T08:27:49.471Z,3320
2019-04-04T08:28:51.624Z,3344
2019-04-04T08:29:53.100Z,3344
2019-04-04T08:30:54.848Z,3344
2019-04-04T08:31:56.315Z,3360
2019-04-04T08:32:57.793Z,3416
2019-04-04T08:33:59.256Z,3476
2019-04-04T08:35:00.774Z,3524
2019-04-04T08:36:06.105Z,3540
2019-04-04T08:37:03.708Z,3484
2019-04-04T08:38:05.184Z,3428
2019-04-04T08:39:06.710Z,3436
2019-04-04T08:40:08.168Z,3516
2019-04-04T08:41:09.666Z,3560
2019-04-04T08:42:11.096Z,3520
2019-04-04T08:43:12.590Z,3424
2019-04-04T08:44:14.098Z,3308
2019-04-04T08:45:15.583Z,3212
2019-04-04T08:46:19.620Z,3192
2019-04-04T08:47:18.457Z,3188
2019-04-04T08:48:19.975Z,3244
2019-04-04T08:49:21.446Z,3324
2019-04-04T08:50:22.928Z,3332
2019-04-04T08:51:24.366Z,3260
2019-04-04T08:52:25.950Z,3300
2019-04-04T08:53:38.896Z,3452
2019-04-04T08:54:28.977Z,3588
2019-04-04T08:55:30.441Z,3628
2019-04-04T08:56:31.877Z,3664
2019-04-04T08:57:33.372Z,3720
2019-04-04T08:58:34.847Z,3784
2019-04-04T08:59:36.480Z,3856
2019-04-04T09:00:37.987Z,3916
2019-04-04T09:01:39.477Z,3956
2019-04-04T09:02:41.019Z,3988
2019-04-04T09:03:42.516Z,4008
2019-04-04T09:04:44.006Z,4016
2019-04-04T09:05:45.459Z,4024
2019-04-04T09:06:46.960Z,4036
2019-04-04T09:07:48.434Z,4016
2019-04-04T09:08:49.898Z,4000
2019-04-04T09:09:51.496Z,4004
2019-04-04T09:10:52.843Z,4084
2019-04-04T09:11:54.245Z,4192
2019-04-04T09:12:55.709Z,4332
2019-04-04T09:13:57.315Z,4500
2019-04-04T09:14:58.774Z,4584
2019-04-04T09:16:00.282Z,4560
2019-04-04T09:17:01.875Z,4496
2019-04-04T09:18:03.384Z,4448
2019-04-04T09:19:04.823Z,4548
2019-04-04T09:20:09.218Z,4684
2019-04-04T09:21:07.737Z,4724
2019-04-04T09:22:10.967Z,4744
2019-04-04T09:23:10.594Z,4808
2019-04-04T09:24:12.076Z,4824
2019-04-04T09:25:13.537Z,4772
2019-04-04T09:26:14.950Z,4636
2019-04-04T09:27:16.433Z,4556
2019-04-04T09:28:18.057Z,4520
2019-04-04T09:29:19.565Z,4496
2019-04-04T09:30:21.003Z,4496
2019-04-04T09:31:22.424Z,4452
2019-04-04T09:32:23.927Z,4320
2019-04-04T09:33:25.410Z,4224
2019-04-04T09:34:26.873Z,4204
2019-04-04T09:35:28.361Z,4284
2019-04-04T09:36:29.800Z,4352
2019-04-04T09:37:31.261Z,4416
2019-04-04T09:38:32.707Z,4512
2019-04-04T09:39:34.193Z,4524
2019-04-04T09:40:35.635Z,4428
2019-04-04T09:41:37.174Z,4424
2019-04-04T09:42:38.720Z,4580
2019-04-04T09:43:40.159Z,4820
2019-04-04T09:44:41.671Z,4936
2019-04-04T09:45:43.144Z,4900
2019-04-04T09:46:44.579Z,4980
2019-04-04T09:47:46.075Z,5176
2019-04-04T09:48:47.553Z,5308
2019-04-04T09:49:49.021Z,5360
2019-04-04T09:50:50.484Z,5340
2019-04-04T09:51:52.014Z,5308
2019-04-04T09:52:53.536Z,5260
2019-04-04T09:53:55.052Z,5216
2019-04-04T09:54:56.481Z,5220
2019-04-04T09:55:57.944Z,5164
2019-04-04T09:56:59.461Z,5100
2019-04-04T09:58:00.919Z,5124
2019-04-04T09:59:02.388Z,5272
2019-04-04T10:00:03.873Z,5452
2019-04-04T10:01:06.537Z,5536
2019-04-04T10:02:06.885Z,5480
2019-04-04T10:03:08.370Z,5312
2019-04-04T10:04:09.806Z,5036
2019-04-04T10:05:11.250Z,4768
2019-04-04T10:06:12.703Z,4592
2019-04-04T10:07:14.143Z,4476
2019-04-04T10:08:15.615Z,4336
2019-04-04T10:09:17.184Z,4144
2019-04-04T10:10:18.509Z,4020
2019-04-04T10:11:19.947Z,3992
2019-04-04T10:12:21.382Z,4004
2019-04-04T10:13:22.840Z,4052
2019-04-04T10:14:24.276Z,4120
2019-04-04T10:15:25.736Z,4140
2019-04-04T10:16:27.198Z,4128
2019-04-04T10:17:28.640Z,4096
2019-04-04T10:18:30.122Z,4020
2019-04-04T10:19:31.619Z,3916
2019-04-04T10:20:33.108Z,3808
2019-04-04T10:21:34.526Z,3676
2019-04-04T10:22:35.969Z,3672
2019-04-04T10:23:37.439Z,3780
2019-04-04T10:24:38.928Z,3916
2019-04-04T10:25:40.442Z,4024
2019-04-04T10:26:41.856Z,4028
2019-04-04T10:27:43.351Z,3996
2019-04-04T10:28:44.870Z,4024
2019-04-04T10:29:46.357Z,3980
2019-04-04T10:30:47.865Z,3892
2019-04-04T10:31:49.324Z,3804
2019-04-04T10:32:50.778Z,3704
2019-04-04T10:33:52.233Z,3600
2019-04-04T10:34:53.703Z,3580
2019-04-04T10:35:55.165Z,3588
2019-04-04T10:36:56.603Z,3584
2019-04-04T10:37:58.030Z,3636
2019-04-04T10:38:59.714Z,3684
2019-04-04T10:40:01.203Z,3668
2019-04-04T10:41:02.904Z,3560
2019-04-04T10:42:04.348Z,3352
2019-04-04T10:43:05.798Z,3180
2019-04-04T10:44:07.315Z,3136
2019-04-04T10:45:08.762Z,3168
2019-04-04T10:46:10.271Z,3140
2019-04-04T10:47:11.684Z,3024
2019-04-04T10:48:13.102Z,2900
2019-04-04T10:49:14.732Z,2840
2019-04-04T10:50:16.208Z,2864
2019-04-04T10:51:17.674Z,2952
2019-04-04T10:52:19.142Z,3048
2019-04-04T10:53:20.625Z,3076
2019-04-04T10:54:22.113Z,3052
2019-04-04T10:55:23.554Z,3028
2019-04-04T10:56:24.989Z,3020
2019-04-04T10:57:26.469Z,3040
2019-04-04T10:58:27.930Z,3052
2019-04-04T10:59:29.389Z,3000
2019-04-04T11:00:30.846Z,2920
2019-04-04T11:01:32.284Z,2852
2019-04-04T11:02:33.740Z,2816
2019-04-04T11:03:35.217Z,2836
2019-04-04T11:04:36.677Z,2920
2019-04-04T11:05:38.104Z,2956
2019-04-04T11:06:39.580Z,2836
2019-04-04T11:07:41.044Z,2596
2019-04-04T11:08:42.562Z,2376
2019-04-04T11:09:44.001Z,2244
2019-04-04T11:10:45.425Z,2204
2019-04-04T11:11:46.892Z,2188
2019-04-04T11:12:48.323Z,2168
2019-04-04T11:13:49.760Z,2128
2019-04-04T11:14:51.228Z,2100
2019-04-04T11:15:52.730Z,2072
2019-04-04T11:16:54.171Z,2044
2019-04-04T11:17:55.575Z,2016
2019-04-04T11:18:57.022Z,1996
2019-04-04T11:19:58.448Z,1992
2019-04-04T11:21:00.271Z,2016
2019-04-04T11:22:01.379Z,2076
2019-04-04T11:23:02.780Z,2160
2019-04-04T11:24:04.216Z,2228
2019-04-04T11:25:05.669Z,2256
2019-04-04T11:26:07.145Z,2248
2019-04-04T11:27:08.636Z,2196
2019-04-04T11:28:10.076Z,2076
2019-04-04T11:29:11.495Z,1896
2019-04-04T11:30:12.945Z,1696
2019-04-04T11:31:14.444Z,1528
2019-04-04T11:32:15.963Z,1416
2019-04-04T11:33:17.454Z,1356
2019-04-04T11:34:18.875Z,1348
2019-04-04T11:35:20.314Z,1360
2019-04-04T11:36:21.848Z,1376
2019-04-04T11:37:23.434Z,1392
2019-04-04T11:38:24.877Z,1416
2019-04-04T11:39:26.414Z,1460
2019-04-04T11:40:27.887Z,1512
2019-04-04T11:41:29.329Z,1540
2019-04-04T11:42:30.805Z,1532
2019-04-04T11:43:32.263Z,1524
2019-04-04T11:44:33.683Z,1540
2019-04-04T11:45:35.093Z,1580
2019-04-04T11:46:36.527Z,1620
2019-04-04T11:47:37.960Z,1644
2019-04-04T11:48:39.422Z,1648
2019-04-04T11:49:40.847Z,1652
2019-04-04T11:50:42.310Z,1660
2019-04-04T11:51:43.745Z,1676
2019-04-04T11:52:45.176Z,1696
2019-04-04T11:53:46.668Z,1712
2019-04-04T11:54:48.168Z,1736
2019-04-04T11:55:49.591Z,1772
2019-04-04T11:56:51.020Z,1840
2019-04-04T11:57:52.501Z,1920
2019-04-04T11:58:53.962Z,1984
2019-04-04T11:59:55.421Z,2008
2019-04-04T12:00:56.840Z,1992
2019-04-04T12:01:58.322Z,1948
2019-04-04T12:02:59.883Z,1892
2019-04-04T12:04:01.269Z,1836
2019-04-04T12:05:02.778Z,1788
2019-04-04T12:06:04.290Z,1756
2019-04-04T12:07:05.756Z,1712
2019-04-04T12:08:07.204Z,1672
2019-04-04T12:09:08.645Z,1656
2019-04-04T12:10:10.112Z,1684
2019-04-04T12:11:11.549Z,1752
2019-04-04T12:12:12.986Z,1852
2019-04-04T12:13:14.510Z,1972
2019-04-04T12:14:16.002Z,2084
2019-04-04T12:15:17.508Z,2128
2019-04-04T12:16:18.997Z,2148
2019-04-04T12:17:20.489Z,2176
2019-04-04T12:18:22.030Z,2204
2019-04-04T12:19:23.467Z,2240
2019-04-04T12:20:24.946Z,2224
2019-04-04T12:21:26.422Z,2204
2019-04-04T12:22:27.857Z,2252
2019-04-04T12:23:29.539Z,2408
2019-04-04T12:24:31.033Z,2472
2019-04-04T12:25:32.486Z,2336
2019-04-04T12:26:33.930Z,2120
2019-04-04T12:27:35.397Z,1960
2019-04-04T12:28:36.890Z,1856
2019-04-04T12:29:38.345Z,1784
2019-04-04T12:30:39.804Z,1728
2019-04-04T12:31:41.312Z,1700
2019-04-04T12:32:42.817Z,1712
2019-04-04T12:33:44.250Z,1760
2019-04-04T12:34:45.799Z,1816
2019-04-04T12:35:47.305Z,1864
2019-04-04T12:36:48.769Z,1868
2019-04-04T12:37:50.300Z,1852
2019-04-04T12:38:51.947Z,1836
2019-04-04T12:39:53.404Z,1836
2019-04-04T12:40:54.915Z,1836
2019-04-04T12:41:56.386Z,1832
2019-04-04T12:42:57.868Z,1836
2019-04-04T12:43:59.344Z,1868
2019-04-04T12:45:00.898Z,1924
2019-04-04T12:46:02.423Z,1992
2019-04-04T12:47:03.898Z,2084
2019-04-04T12:48:05.354Z,2192
2019-04-04T12:49:06.894Z,2292
2019-04-04T12:50:08.533Z,2400
2019-04-04T12:51:10.092Z,2508
2019-04-04T12:52:11.679Z,2632
2019-04-04T12:53:13.214Z,2776
2019-04-04T12:54:14.658Z,2932
2019-04-04T12:55:16.193Z,3060
2019-04-04T12:56:17.724Z,3124
2019-04-04T12:57:19.280Z,3096
2019-04-04T12:58:20.851Z,3056
2019-04-04T12:59:22.315Z,3048
2019-04-04T13:00:23.852Z,3092
2019-04-04T13:01:25.308Z,3164
2019-04-04T13:02:26.817Z,3244
2019-04-04T13:03:28.325Z,3300
2019-04-04T13:04:31.816Z,3332
2019-04-04T13:05:31.314Z,3328
2019-04-04T13:06:32.862Z,3284
2019-04-04T13:07:34.592Z,3272
2019-04-04T13:08:36.226Z,3320
2019-04-04T13:09:37.780Z,3328
2019-04-04T13:10:39.374Z,3260
2019-04-04T13:11:40.883Z,3216
2019-04-04T13:12:42.409Z,3216
2019-04-04T13:13:44.674Z,3236
2019-04-04T13:14:46.171Z,3260
2019-04-04T13:15:47.681Z,3236
2019-04-04T13:16:49.251Z,3192
2019-04-04T13:17:50.801Z,3136
2019-04-04T13:18:52.491Z,3068
2019-04-04T13:19:54.099Z,2976
2019-04-04T13:20:55.676Z,2896
2019-04-04T13:21:57.278Z,2836
2019-04-04T13:22:58.884Z,2792
2019-04-04T13:24:00.458Z,2780
2019-04-04T13:25:02.018Z,2780
2019-04-04T13:26:03.658Z,2748
2019-04-04T13:27:05.066Z,2672
2019-04-04T13:28:06.606Z,2616
2019-04-04T13:29:08.237Z,2584
2019-04-04T13:30:09.824Z,2552
2019-04-04T13:31:11.379Z,2552
2019-04-04T13:32:12.974Z,2628
2019-04-04T13:33:15.281Z,2756
2019-04-04T13:34:16.906Z,2908
2019-04-04T13:35:18.431Z,3024
2019-04-04T13:36:20.095Z,3052
2019-04-04T13:37:21.778Z,2996
2019-04-04T13:38:23.336Z,2916
2019-04-04T13:39:24.891Z,2852
2019-04-04T13:40:26.466Z,2812
2019-04-04T13:41:28.231Z,2800
2019-04-04T13:42:29.961Z,2808
2019-04-04T13:43:31.560Z,2844
2019-04-04T13:44:33.129Z,2896
2019-04-04T13:45:34.881Z,2964
2019-04-04T13:46:36.450Z,3032
2019-04-04T13:47:39.404Z,3108
2019-04-04T13:48:43.208Z,3224
2019-04-04T13:49:42.190Z,3420
2019-04-04T13:50:42.691Z,3684
2019-04-04T13:51:44.200Z,3840
2019-04-04T13:52:45.847Z,3956
2019-04-04T13:53:47.382Z,4032
2019-04-04T13:54:48.917Z,3980
2019-04-04T13:55:50.474Z,3812
2019-04-04T13:56:51.987Z,3572
2019-04-04T13:57:53.434Z,3428
2019-04-04T13:58:55.045Z,3472
2019-04-04T13:59:56.517Z,3580
2019-04-04T14:00:58.177Z,3556
2019-04-04T14:01:59.661Z,3448
2019-04-04T14:03:01.181Z,3312
2019-04-04T14:04:02.744Z,3164
2019-04-04T14:05:09.918Z,3004
2019-04-04T14:06:05.815Z,2844
2019-04-04T14:07:07.437Z,2696
2019-04-04T14:08:09.004Z,2552
2019-04-04T14:09:12.341Z,2432
2019-04-04T14:10:12.067Z,2340
2019-04-04T14:11:13.633Z,2296
2019-04-04T14:12:15.118Z,2284